sensor_id;sensor_type;location;lat;lon;timestamp;P1;P2;P0
62591;PMS5003;48659;41.622;2.276;2022-11-03T00:00:53;10;8;
62591;PMS5003;48659;41.622;2.276;2022-11-03T00:03:20;8;8;
62591;PMS5003;48659;41.622;2.276;2022-11-03T00:05:47;9;9;
62591;PMS5003;48659;41.622;2.276;2022-11-03T00:08:14;12;10;
62591;PMS5003;48659;41.622;2.276;2022-11-03T00:10:42;8;8;
62591;PMS5003;48659;41.622;2.276;2022-11-03T00:13:35;11;9;
62591;PMS5003;48659;41.622;2.276;2022-11-03T00:13:45;11;9;
62591;PMS5003;48659;41.622;2.276;2022-11-03T00:16:18;17;13;
62591;PMS5003;48659;41.622;2.276;2022-11-03T00:18:45;10;10;
62591;PMS5003;48659;41.622;2.276;2022-11-03T00:21:18;12;10;
62591;PMS5003;48659;41.622;2.276;2022-11-03T00:23:45;9;9;
62591;PMS5003;48659;41.622;2.276;2022-11-03T00:26:18;11;9;
62591;PMS5003;48659;41.622;2.276;2022-11-03T00:28:48;11;11;
62591;PMS5003;48659;41.622;2.276;2022-11-03T00:31:17;13;11;
62591;PMS5003;48659;41.622;2.276;2022-11-03T00:33:46;9;8;
62591;PMS5003;48659;41.622;2.276;2022-11-03T00:36:16;11;9;
62591;PMS5003;48659;41.622;2.276;2022-11-03T00:38:44;14;10;
62591;PMS5003;48659;41.622;2.276;2022-11-03T00:41:12;13;12;
62591;PMS5003;48659;41.622;2.276;2022-11-03T00:43:40;9;9;
62591;PMS5003;48659;41.622;2.276;2022-11-03T00:46:08;11;9;
62591;PMS5003;48659;41.622;2.276;2022-11-03T00:48:36;9;9;
62591;PMS5003;48659;41.622;2.276;2022-11-03T00:51:41;10;10;
62591;PMS5003;48659;41.622;2.276;2022-11-03T00:54:17;9;9;
62591;PMS5003;48659;41.622;2.276;2022-11-03T00:56:44;10;8;
62591;PMS5003;48659;41.622;2.276;2022-11-03T00:59:11;10;10;
62591;PMS5003;48659;41.622;2.276;2022-11-03T01:01:43;12;11;
62591;PMS5003;48659;41.622;2.276;2022-11-03T01:04:28;13;11;
62591;PMS5003;48659;41.622;2.276;2022-11-03T01:06:56;14;13;
62591;PMS5003;48659;41.622;2.276;2022-11-03T01:09:25;13;12;
62591;PMS5003;48659;41.622;2.276;2022-11-03T01:11:56;16;13;
62591;PMS5003;48659;41.622;2.276;2022-11-03T01:14:25;15;11;
62591;PMS5003;48659;41.622;2.276;2022-11-03T01:16:55;24;19;
62591;PMS5003;48659;41.622;2.276;2022-11-03T01:19:22;15;15;
62591;PMS5003;48659;41.622;2.276;2022-11-03T01:21:50;15;12;
62591;PMS5003;48659;41.622;2.276;2022-11-03T01:24:18;17;15;
62591;PMS5003;48659;41.622;2.276;2022-11-03T01:26:46;17;15;
62591;PMS5003;48659;41.622;2.276;2022-11-03T01:29:14;21;16;
62591;PMS5003;48659;41.622;2.276;2022-11-03T01:31:41;17;13;
62591;PMS5003;48659;41.622;2.276;2022-11-03T01:34:11;14;13;
62591;PMS5003;48659;41.622;2.276;2022-11-03T01:36:40;12;12;
62591;PMS5003;48659;41.622;2.276;2022-11-03T01:39:09;15;15;
62591;PMS5003;48659;41.622;2.276;2022-11-03T01:41:37;15;12;
62591;PMS5003;48659;41.622;2.276;2022-11-03T01:44:38;17;15;
62591;PMS5003;48659;41.622;2.276;2022-11-03T01:47:20;13;13;
62591;PMS5003;48659;41.622;2.276;2022-11-03T01:49:53;17;14;
62591;PMS5003;48659;41.622;2.276;2022-11-03T01:52:25;12;9;
62591;PMS5003;48659;41.622;2.276;2022-11-03T01:54:57;12;10;
62591;PMS5003;48659;41.622;2.276;2022-11-03T01:57:29;12;11;
62591;PMS5003;48659;41.622;2.276;2022-11-03T02:00:01;17;16;
62591;PMS5003;48659;41.622;2.276;2022-11-03T02:02:30;10;10;
62591;PMS5003;48659;41.622;2.276;2022-11-03T02:04:58;13;10;
62591;PMS5003;48659;41.622;2.276;2022-11-03T02:07:29;12;10;
62591;PMS5003;48659;41.622;2.276;2022-11-03T02:10:02;9;9;
62591;PMS5003;48659;41.622;2.276;2022-11-03T02:12:30;13;10;
62591;PMS5003;48659;41.622;2.276;2022-11-03T02:14:59;11;10;
62591;PMS5003;48659;41.622;2.276;2022-11-03T02:17:30;9;9;
62591;PMS5003;48659;41.622;2.276;2022-11-03T02:20:00;11;10;
62591;PMS5003;48659;41.622;2.276;2022-11-03T02:22:42;12;10;
62591;PMS5003;48659;41.622;2.276;2022-11-03T02:25:41;9;9;
62591;PMS5003;48659;41.622;2.276;2022-11-03T02:28:10;9;7;
62591;PMS5003;48659;41.622;2.276;2022-11-03T02:30:42;9;8;
62591;PMS5003;48659;41.622;2.276;2022-11-03T02:33:14;9;7;
62591;PMS5003;48659;41.622;2.276;2022-11-03T02:35:56;12;10;
62591;PMS5003;48659;41.622;2.276;2022-11-03T02:38:29;12;9;
62591;PMS5003;48659;41.622;2.276;2022-11-03T02:41:02;9;8;
62591;PMS5003;48659;41.622;2.276;2022-11-03T02:43:32;12;9;
62591;PMS5003;48659;41.622;2.276;2022-11-03T02:46:00;12;12;
62591;PMS5003;48659;41.622;2.276;2022-11-03T02:48:30;10;8;
62591;PMS5003;48659;41.622;2.276;2022-11-03T02:50:58;12;9;
62591;PMS5003;48659;41.622;2.276;2022-11-03T02:53:25;10;9;
62591;PMS5003;48659;41.622;2.276;2022-11-03T02:55:57;8;8;
62591;PMS5003;48659;41.622;2.276;2022-11-03T02:58:32;11;11;
62591;PMS5003;48659;41.622;2.276;2022-11-03T03:01:05;13;12;
62591;PMS5003;48659;41.622;2.276;2022-11-03T03:03:37;9;8;
62591;PMS5003;48659;41.622;2.276;2022-11-03T03:06:08;13;11;
62591;PMS5003;48659;41.622;2.276;2022-11-03T03:08:43;16;15;
62591;PMS5003;48659;41.622;2.276;2022-11-03T03:11:14;15;15;
62591;PMS5003;48659;41.622;2.276;2022-11-03T03:13:41;9;9;
62591;PMS5003;48659;41.622;2.276;2022-11-03T03:16:11;11;9;
62591;PMS5003;48659;41.622;2.276;2022-11-03T03:18:45;10;10;
62591;PMS5003;48659;41.622;2.276;2022-11-03T03:21:18;12;10;
62591;PMS5003;48659;41.622;2.276;2022-11-03T03:23:50;11;9;
62591;PMS5003;48659;41.622;2.276;2022-11-03T03:26:24;12;11;
62591;PMS5003;48659;41.622;2.276;2022-11-03T03:28:55;10;9;
62591;PMS5003;48659;41.622;2.276;2022-11-03T03:31:25;12;11;
62591;PMS5003;48659;41.622;2.276;2022-11-03T03:33:58;12;11;
62591;PMS5003;48659;41.622;2.276;2022-11-03T03:36:26;8;8;
62591;PMS5003;48659;41.622;2.276;2022-11-03T03:38:56;8;8;
62591;PMS5003;48659;41.622;2.276;2022-11-03T03:41:27;13;12;
62591;PMS5003;48659;41.622;2.276;2022-11-03T03:43:56;15;9;
62591;PMS5003;48659;41.622;2.276;2022-11-03T03:46:28;13;11;
62591;PMS5003;48659;41.622;2.276;2022-11-03T03:48:59;10;9;
62591;PMS5003;48659;41.622;2.276;2022-11-03T03:51:27;15;14;
62591;PMS5003;48659;41.622;2.276;2022-11-03T03:53:55;18;14;
62591;PMS5003;48659;41.622;2.276;2022-11-03T03:56:24;16;13;
62591;PMS5003;48659;41.622;2.276;2022-11-03T03:59:13;16;14;
62591;PMS5003;48659;41.622;2.276;2022-11-03T04:01:41;15;14;
62591;PMS5003;48659;41.622;2.276;2022-11-03T04:04:08;18;15;
62591;PMS5003;48659;41.622;2.276;2022-11-03T04:06:35;19;15;
62591;PMS5003;48659;41.622;2.276;2022-11-03T04:09:03;15;13;
62591;PMS5003;48659;41.622;2.276;2022-11-03T04:11:30;18;16;
62591;PMS5003;48659;41.622;2.276;2022-11-03T04:13:58;14;11;
62591;PMS5003;48659;41.622;2.276;2022-11-03T04:16:25;13;11;
62591;PMS5003;48659;41.622;2.276;2022-11-03T04:18:52;15;13;
62591;PMS5003;48659;41.622;2.276;2022-11-03T04:21:20;15;13;
62591;PMS5003;48659;41.622;2.276;2022-11-03T04:23:47;12;12;
62591;PMS5003;48659;41.622;2.276;2022-11-03T04:26:15;14;12;
62591;PMS5003;48659;41.622;2.276;2022-11-03T04:28:44;13;13;
62591;PMS5003;48659;41.622;2.276;2022-11-03T04:31:12;14;13;
62591;PMS5003;48659;41.622;2.276;2022-11-03T04:33:41;16;13;
62591;PMS5003;48659;41.622;2.276;2022-11-03T04:36:17;12;12;
62591;PMS5003;48659;41.622;2.276;2022-11-03T04:38:46;12;12;
62591;PMS5003;48659;41.622;2.276;2022-11-03T04:41:15;14;14;
62591;PMS5003;48659;41.622;2.276;2022-11-03T04:43:44;13;13;
62591;PMS5003;48659;41.622;2.276;2022-11-03T04:46:12;16;15;
62591;PMS5003;48659;41.622;2.276;2022-11-03T04:48:42;13;13;
62591;PMS5003;48659;41.622;2.276;2022-11-03T04:51:12;14;13;
62591;PMS5003;48659;41.622;2.276;2022-11-03T04:53:45;16;15;
62591;PMS5003;48659;41.622;2.276;2022-11-03T04:56:16;14;12;
62591;PMS5003;48659;41.622;2.276;2022-11-03T04:58:46;19;14;
62591;PMS5003;48659;41.622;2.276;2022-11-03T05:01:15;16;15;
62591;PMS5003;48659;41.622;2.276;2022-11-03T05:03:46;18;16;
62591;PMS5003;48659;41.622;2.276;2022-11-03T05:06:17;14;12;
62591;PMS5003;48659;41.622;2.276;2022-11-03T05:08:48;14;14;
62591;PMS5003;48659;41.622;2.276;2022-11-03T05:11:19;16;16;
62591;PMS5003;48659;41.622;2.276;2022-11-03T05:13:52;15;14;
62591;PMS5003;48659;41.622;2.276;2022-11-03T05:16:22;16;14;
62591;PMS5003;48659;41.622;2.276;2022-11-03T05:18:50;14;12;
62591;PMS5003;48659;41.622;2.276;2022-11-03T05:21:18;16;16;
62591;PMS5003;48659;41.622;2.276;2022-11-03T05:23:49;15;13;
62591;PMS5003;48659;41.622;2.276;2022-11-03T05:26:22;17;13;
62591;PMS5003;48659;41.622;2.276;2022-11-03T05:28:53;13;13;
62591;PMS5003;48659;41.622;2.276;2022-11-03T05:31:24;14;12;
62591;PMS5003;48659;41.622;2.276;2022-11-03T05:33:55;17;13;
62591;PMS5003;48659;41.622;2.276;2022-11-03T05:36:25;20;14;
62591;PMS5003;48659;41.622;2.276;2022-11-03T05:38:57;14;12;
62591;PMS5003;48659;41.622;2.276;2022-11-03T05:41:26;15;15;
62591;PMS5003;48659;41.622;2.276;2022-11-03T05:43:56;19;17;
62591;PMS5003;48659;41.622;2.276;2022-11-03T05:46:28;19;16;
62591;PMS5003;48659;41.622;2.276;2022-11-03T05:48:57;17;17;
62591;PMS5003;48659;41.622;2.276;2022-11-03T05:51:27;19;19;
62591;PMS5003;48659;41.622;2.276;2022-11-03T05:53:58;20;16;
62591;PMS5003;48659;41.622;2.276;2022-11-03T05:56:27;19;18;
62591;PMS5003;48659;41.622;2.276;2022-11-03T05:58:57;21;18;
62591;PMS5003;48659;41.622;2.276;2022-11-03T06:01:27;20;16;
62591;PMS5003;48659;41.622;2.276;2022-11-03T06:03:57;17;15;
62591;PMS5003;48659;41.622;2.276;2022-11-03T06:06:26;20;16;
62591;PMS5003;48659;41.622;2.276;2022-11-03T06:08:59;19;16;
62591;PMS5003;48659;41.622;2.276;2022-11-03T06:11:30;17;14;
62591;PMS5003;48659;41.622;2.276;2022-11-03T06:14:01;16;16;
62591;PMS5003;48659;41.622;2.276;2022-11-03T06:16:39;14;14;
62591;PMS5003;48659;41.622;2.276;2022-11-03T06:19:13;15;14;
62591;PMS5003;48659;41.622;2.276;2022-11-03T06:21:46;15;15;
62591;PMS5003;48659;41.622;2.276;2022-11-03T06:24:18;18;14;
62591;PMS5003;48659;41.622;2.276;2022-11-03T06:26:48;15;14;
62591;PMS5003;48659;41.622;2.276;2022-11-03T06:29:18;16;14;
62591;PMS5003;48659;41.622;2.276;2022-11-03T06:31:46;15;15;
62591;PMS5003;48659;41.622;2.276;2022-11-03T06:34:33;17;15;
62591;PMS5003;48659;41.622;2.276;2022-11-03T06:37:12;19;16;
62591;PMS5003;48659;41.622;2.276;2022-11-03T06:39:45;13;13;
62591;PMS5003;48659;41.622;2.276;2022-11-03T06:42:14;20;17;
62591;PMS5003;48659;41.622;2.276;2022-11-03T06:44:45;18;15;
62591;PMS5003;48659;41.622;2.276;2022-11-03T06:47:17;21;20;
62591;PMS5003;48659;41.622;2.276;2022-11-03T06:49:48;20;19;
62591;PMS5003;48659;41.622;2.276;2022-11-03T06:52:26;17;15;
62591;PMS5003;48659;41.622;2.276;2022-11-03T06:55:01;18;15;
62591;PMS5003;48659;41.622;2.276;2022-11-03T06:57:45;20;18;
62591;PMS5003;48659;41.622;2.276;2022-11-03T07:00:16;17;17;
62591;PMS5003;48659;41.622;2.276;2022-11-03T07:02:51;23;20;
62591;PMS5003;48659;41.622;2.276;2022-11-03T07:05:22;25;21;
62591;PMS5003;48659;41.622;2.276;2022-11-03T07:07:51;23;20;
62591;PMS5003;48659;41.622;2.276;2022-11-03T07:10:21;23;18;
62591;PMS5003;48659;41.622;2.276;2022-11-03T07:12:51;24;21;
62591;PMS5003;48659;41.622;2.276;2022-11-03T07:15:25;20;18;
62591;PMS5003;48659;41.622;2.276;2022-11-03T07:17:56;18;18;
62591;PMS5003;48659;41.622;2.276;2022-11-03T07:20:24;21;20;
62591;PMS5003;48659;41.622;2.276;2022-11-03T07:22:54;24;23;
62591;PMS5003;48659;41.622;2.276;2022-11-03T07:25:25;24;23;
62591;PMS5003;48659;41.622;2.276;2022-11-03T07:27:53;17;17;
62591;PMS5003;48659;41.622;2.276;2022-11-03T07:30:22;21;19;
62591;PMS5003;48659;41.622;2.276;2022-11-03T07:32:53;17;16;
62591;PMS5003;48659;41.622;2.276;2022-11-03T07:35:29;21;19;
62591;PMS5003;48659;41.622;2.276;2022-11-03T07:38:01;22;20;
62591;PMS5003;48659;41.622;2.276;2022-11-03T07:40:35;24;24;
62591;PMS5003;48659;41.622;2.276;2022-11-03T07:43:09;22;19;
62591;PMS5003;48659;41.622;2.276;2022-11-03T07:45:41;23;19;
62591;PMS5003;48659;41.622;2.276;2022-11-03T07:48:13;26;23;
62591;PMS5003;48659;41.622;2.276;2022-11-03T07:50:45;20;19;
62591;PMS5003;48659;41.622;2.276;2022-11-03T07:53:15;24;22;
62591;PMS5003;48659;41.622;2.276;2022-11-03T07:55:47;22;20;
62591;PMS5003;48659;41.622;2.276;2022-11-03T07:58:17;16;16;
62591;PMS5003;48659;41.622;2.276;2022-11-03T08:00:48;24;19;
62591;PMS5003;48659;41.622;2.276;2022-11-03T08:03:23;30;25;
62591;PMS5003;48659;41.622;2.276;2022-11-03T08:05:55;20;20;
62591;PMS5003;48659;41.622;2.276;2022-11-03T08:08:22;33;25;
62591;PMS5003;48659;41.622;2.276;2022-11-03T08:10:50;24;23;
62591;PMS5003;48659;41.622;2.276;2022-11-03T08:13:18;33;27;
62591;PMS5003;48659;41.622;2.276;2022-11-03T08:15:45;29;23;
62591;PMS5003;48659;41.622;2.276;2022-11-03T08:18:13;25;25;
62591;PMS5003;48659;41.622;2.276;2022-11-03T08:20:40;22;22;
62591;PMS5003;48659;41.622;2.276;2022-11-03T08:23:07;24;23;
62591;PMS5003;48659;41.622;2.276;2022-11-03T08:25:35;27;22;
62591;PMS5003;48659;41.622;2.276;2022-11-03T08:28:03;29;27;
62591;PMS5003;48659;41.622;2.276;2022-11-03T08:30:31;27;25;
62591;PMS5003;48659;41.622;2.276;2022-11-03T08:32:58;25;23;
62591;PMS5003;48659;41.622;2.276;2022-11-03T08:35:26;25;24;
62591;PMS5003;48659;41.622;2.276;2022-11-03T08:37:53;23;21;
62591;PMS5003;48659;41.622;2.276;2022-11-03T08:40:21;24;22;
62591;PMS5003;48659;41.622;2.276;2022-11-03T08:42:54;24;24;
62591;PMS5003;48659;41.622;2.276;2022-11-03T08:45:22;25;23;
62591;PMS5003;48659;41.622;2.276;2022-11-03T08:47:54;29;26;
62591;PMS5003;48659;41.622;2.276;2022-11-03T08:50:22;26;25;
62591;PMS5003;48659;41.622;2.276;2022-11-03T08:52:50;28;24;
62591;PMS5003;48659;41.622;2.276;2022-11-03T08:55:18;30;29;
62591;PMS5003;48659;41.622;2.276;2022-11-03T08:57:45;28;27;
62591;PMS5003;48659;41.622;2.276;2022-11-03T09:00:13;28;22;
62591;PMS5003;48659;41.622;2.276;2022-11-03T09:02:41;27;24;
62591;PMS5003;48659;41.622;2.276;2022-11-03T09:05:09;27;27;
62591;PMS5003;48659;41.622;2.276;2022-11-03T09:07:37;23;22;
62591;PMS5003;48659;41.622;2.276;2022-11-03T09:10:04;27;25;
62591;PMS5003;48659;41.622;2.276;2022-11-03T09:12:33;22;21;
62591;PMS5003;48659;41.622;2.276;2022-11-03T09:15:00;26;25;
62591;PMS5003;48659;41.622;2.276;2022-11-03T09:17:28;27;25;
62591;PMS5003;48659;41.622;2.276;2022-11-03T09:19:55;28;27;
62591;PMS5003;48659;41.622;2.276;2022-11-03T09:22:23;31;26;
62591;PMS5003;48659;41.622;2.276;2022-11-03T09:24:51;31;26;
62591;PMS5003;48659;41.622;2.276;2022-11-03T09:27:18;24;22;
62591;PMS5003;48659;41.622;2.276;2022-11-03T09:29:56;38;30;
62591;PMS5003;48659;41.622;2.276;2022-11-03T09:32:23;28;24;
62591;PMS5003;48659;41.622;2.276;2022-11-03T09:34:51;32;29;
62591;PMS5003;48659;41.622;2.276;2022-11-03T09:37:19;27;27;
62591;PMS5003;48659;41.622;2.276;2022-11-03T09:39:46;24;24;
62591;PMS5003;48659;41.622;2.276;2022-11-03T09:42:13;25;24;
62591;PMS5003;48659;41.622;2.276;2022-11-03T09:44:42;33;31;
62591;PMS5003;48659;41.622;2.276;2022-11-03T09:47:11;31;29;
62591;PMS5003;48659;41.622;2.276;2022-11-03T09:49:45;26;25;
62591;PMS5003;48659;41.622;2.276;2022-11-03T09:52:13;34;27;
62591;PMS5003;48659;41.622;2.276;2022-11-03T09:54:45;28;27;
62591;PMS5003;48659;41.622;2.276;2022-11-03T09:57:14;28;26;
62591;PMS5003;48659;41.622;2.276;2022-11-03T09:59:42;30;25;
62591;PMS5003;48659;41.622;2.276;2022-11-03T10:02:13;23;22;
62591;PMS5003;48659;41.622;2.276;2022-11-03T10:04:46;24;21;
62591;PMS5003;48659;41.622;2.276;2022-11-03T10:07:13;24;22;
62591;PMS5003;48659;41.622;2.276;2022-11-03T10:09:41;24;22;
62591;PMS5003;48659;41.622;2.276;2022-11-03T10:12:12;23;23;
62591;PMS5003;48659;41.622;2.276;2022-11-03T10:14:39;24;22;
62591;PMS5003;48659;41.622;2.276;2022-11-03T10:17:08;22;21;
62591;PMS5003;48659;41.622;2.276;2022-11-03T10:19:47;26;22;
62591;PMS5003;48659;41.622;2.276;2022-11-03T10:22:18;29;24;
62591;PMS5003;48659;41.622;2.276;2022-11-03T10:24:46;30;23;
62591;PMS5003;48659;41.622;2.276;2022-11-03T10:27:21;27;24;
62591;PMS5003;48659;41.622;2.276;2022-11-03T10:30:06;27;24;
62591;PMS5003;48659;41.622;2.276;2022-11-03T10:32:35;29;26;
62591;PMS5003;48659;41.622;2.276;2022-11-03T10:35:29;24;20;
62591;PMS5003;48659;41.622;2.276;2022-11-03T10:38:04;22;21;
62591;PMS5003;48659;41.622;2.276;2022-11-03T10:40:50;21;20;
62591;PMS5003;48659;41.622;2.276;2022-11-03T10:43:18;20;20;
62591;PMS5003;48659;41.622;2.276;2022-11-03T10:45:45;31;25;
62591;PMS5003;48659;41.622;2.276;2022-11-03T10:48:13;29;23;
62591;PMS5003;48659;41.622;2.276;2022-11-03T10:50:41;19;19;
62591;PMS5003;48659;41.622;2.276;2022-11-03T10:53:23;22;19;
62591;PMS5003;48659;41.622;2.276;2022-11-03T10:55:50;24;21;
62591;PMS5003;48659;41.622;2.276;2022-11-03T10:58:18;26;25;
62591;PMS5003;48659;41.622;2.276;2022-11-03T11:00:46;24;22;
62591;PMS5003;48659;41.622;2.276;2022-11-03T11:03:13;23;21;
62591;PMS5003;48659;41.622;2.276;2022-11-03T11:05:43;23;20;
62591;PMS5003;48659;41.622;2.276;2022-11-03T11:08:21;25;20;
62591;PMS5003;48659;41.622;2.276;2022-11-03T11:10:49;24;24;
62591;PMS5003;48659;41.622;2.276;2022-11-03T11:13:32;24;20;
62591;PMS5003;48659;41.622;2.276;2022-11-03T11:16:00;25;24;
62591;PMS5003;48659;41.622;2.276;2022-11-03T11:18:59;30;24;
62591;PMS5003;48659;41.622;2.276;2022-11-03T11:22:00;28;25;
62591;PMS5003;48659;41.622;2.276;2022-11-03T11:25:10;23;22;
62591;PMS5003;48659;41.622;2.276;2022-11-03T11:27:54;20;20;
62591;PMS5003;48659;41.622;2.276;2022-11-03T11:30:57;22;22;
62591;PMS5003;48659;41.622;2.276;2022-11-03T11:33:25;20;19;
62591;PMS5003;48659;41.622;2.276;2022-11-03T11:36:04;24;19;
62591;PMS5003;48659;41.622;2.276;2022-11-03T11:38:57;22;20;
62591;PMS5003;48659;41.622;2.276;2022-11-03T11:42:03;16;16;
62591;PMS5003;48659;41.622;2.276;2022-11-03T11:44:51;19;19;
62591;PMS5003;48659;41.622;2.276;2022-11-03T11:47:27;20;19;
62591;PMS5003;48659;41.622;2.276;2022-11-03T11:50:01;20;18;
62591;PMS5003;48659;41.622;2.276;2022-11-03T11:53:02;19;16;
62591;PMS5003;48659;41.622;2.276;2022-11-03T11:55:39;14;14;
62591;PMS5003;48659;41.622;2.276;2022-11-03T11:58:25;18;18;
62591;PMS5003;48659;41.622;2.276;2022-11-03T12:01:00;17;14;
62591;PMS5003;48659;41.622;2.276;2022-11-03T12:03:32;21;18;
62591;PMS5003;48659;41.622;2.276;2022-11-03T12:06:03;16;16;
62591;PMS5003;48659;41.622;2.276;2022-11-03T12:08:31;15;15;
62591;PMS5003;48659;41.622;2.276;2022-11-03T12:10:59;19;17;
62591;PMS5003;48659;41.622;2.276;2022-11-03T12:13:39;15;14;
62591;PMS5003;48659;41.622;2.276;2022-11-03T12:16:10;20;18;
62591;PMS5003;48659;41.622;2.276;2022-11-03T12:18:53;15;15;
62591;PMS5003;48659;41.622;2.276;2022-11-03T12:21:53;20;17;
62591;PMS5003;48659;41.622;2.276;2022-11-03T12:24:37;18;15;
62591;PMS5003;48659;41.622;2.276;2022-11-03T12:27:38;16;16;
62591;PMS5003;48659;41.622;2.276;2022-11-03T12:30:13;24;22;
62591;PMS5003;48659;41.622;2.276;2022-11-03T12:32:43;18;15;
62591;PMS5003;48659;41.622;2.276;2022-11-03T12:35:12;13;11;
62591;PMS5003;48659;41.622;2.276;2022-11-03T12:37:40;15;13;
62591;PMS5003;48659;41.622;2.276;2022-11-03T12:40:07;14;12;
62591;PMS5003;48659;41.622;2.276;2022-11-03T12:42:37;17;16;
62591;PMS5003;48659;41.622;2.276;2022-11-03T12:45:05;18;18;
62591;PMS5003;48659;41.622;2.276;2022-11-03T12:47:33;19;19;
62591;PMS5003;48659;41.622;2.276;2022-11-03T12:50:01;19;15;
62591;PMS5003;48659;41.622;2.276;2022-11-03T12:52:29;20;19;
62591;PMS5003;48659;41.622;2.276;2022-11-03T12:54:56;18;16;
62591;PMS5003;48659;41.622;2.276;2022-11-03T12:57:24;16;15;
62591;PMS5003;48659;41.622;2.276;2022-11-03T12:59:51;17;16;
62591;PMS5003;48659;41.622;2.276;2022-11-03T13:02:20;15;15;
62591;PMS5003;48659;41.622;2.276;2022-11-03T13:04:47;15;15;
62591;PMS5003;48659;41.622;2.276;2022-11-03T13:07:15;16;16;
62591;PMS5003;48659;41.622;2.276;2022-11-03T13:09:42;20;19;
62591;PMS5003;48659;41.622;2.276;2022-11-03T13:12:10;15;15;
62591;PMS5003;48659;41.622;2.276;2022-11-03T13:14:38;20;16;
62591;PMS5003;48659;41.622;2.276;2022-11-03T13:17:05;20;17;
62591;PMS5003;48659;41.622;2.276;2022-11-03T13:19:33;15;15;
62591;PMS5003;48659;41.622;2.276;2022-11-03T13:22:00;20;15;
62591;PMS5003;48659;41.622;2.276;2022-11-03T13:24:27;14;14;
62591;PMS5003;48659;41.622;2.276;2022-11-03T13:26:54;15;13;
62591;PMS5003;48659;41.622;2.276;2022-11-03T13:29:22;15;14;
62591;PMS5003;48659;41.622;2.276;2022-11-03T13:31:49;15;15;
62591;PMS5003;48659;41.622;2.276;2022-11-03T13:34:16;16;14;
62591;PMS5003;48659;41.622;2.276;2022-11-03T13:36:44;19;16;
62591;PMS5003;48659;41.622;2.276;2022-11-03T13:39:11;14;13;
62591;PMS5003;48659;41.622;2.276;2022-11-03T13:41:39;13;12;
62591;PMS5003;48659;41.622;2.276;2022-11-03T13:44:06;16;14;
62591;PMS5003;48659;41.622;2.276;2022-11-03T13:46:33;13;11;
62591;PMS5003;48659;41.622;2.276;2022-11-03T13:49:01;15;15;
62591;PMS5003;48659;41.622;2.276;2022-11-03T13:51:28;12;12;
62591;PMS5003;48659;41.622;2.276;2022-11-03T13:53:55;16;15;
62591;PMS5003;48659;41.622;2.276;2022-11-03T13:56:24;16;15;
62591;PMS5003;48659;41.622;2.276;2022-11-03T13:58:51;14;11;
62591;PMS5003;48659;41.622;2.276;2022-11-03T14:01:18;14;12;
62591;PMS5003;48659;41.622;2.276;2022-11-03T14:03:45;13;12;
62591;PMS5003;48659;41.622;2.276;2022-11-03T14:06:13;13;11;
62591;PMS5003;48659;41.622;2.276;2022-11-03T14:08:40;15;12;
62591;PMS5003;48659;41.622;2.276;2022-11-03T14:11:07;13;13;
62591;PMS5003;48659;41.622;2.276;2022-11-03T14:13:34;13;13;
62591;PMS5003;48659;41.622;2.276;2022-11-03T14:16:02;13;12;
62591;PMS5003;48659;41.622;2.276;2022-11-03T14:18:30;15;13;
62591;PMS5003;48659;41.622;2.276;2022-11-03T14:20:57;13;11;
62591;PMS5003;48659;41.622;2.276;2022-11-03T14:23:24;16;14;
62591;PMS5003;48659;41.622;2.276;2022-11-03T14:25:52;14;14;
62591;PMS5003;48659;41.622;2.276;2022-11-03T14:28:20;14;13;
62591;PMS5003;48659;41.622;2.276;2022-11-03T14:30:47;10;9;
62591;PMS5003;48659;41.622;2.276;2022-11-03T14:33:19;10;10;
62591;PMS5003;48659;41.622;2.276;2022-11-03T14:35:46;11;10;
62591;PMS5003;48659;41.622;2.276;2022-11-03T14:38:14;13;13;
62591;PMS5003;48659;41.622;2.276;2022-11-03T14:40:40;11;11;
62591;PMS5003;48659;41.622;2.276;2022-11-03T14:43:08;10;9;
62591;PMS5003;48659;41.622;2.276;2022-11-03T14:45:36;11;11;
62591;PMS5003;48659;41.622;2.276;2022-11-03T14:48:04;11;11;
62591;PMS5003;48659;41.622;2.276;2022-11-03T14:50:32;9;9;
62591;PMS5003;48659;41.622;2.276;2022-11-03T14:52:59;9;9;
62591;PMS5003;48659;41.622;2.276;2022-11-03T14:55:26;13;13;
62591;PMS5003;48659;41.622;2.276;2022-11-03T14:57:54;12;11;
62591;PMS5003;48659;41.622;2.276;2022-11-03T15:00:22;13;13;
62591;PMS5003;48659;41.622;2.276;2022-11-03T15:02:49;12;12;
62591;PMS5003;48659;41.622;2.276;2022-11-03T15:05:17;11;11;
62591;PMS5003;48659;41.622;2.276;2022-11-03T15:07:44;10;9;
62591;PMS5003;48659;41.622;2.276;2022-11-03T15:10:12;10;10;
62591;PMS5003;48659;41.622;2.276;2022-11-03T15:12:40;10;10;
62591;PMS5003;48659;41.622;2.276;2022-11-03T15:15:07;13;11;
62591;PMS5003;48659;41.622;2.276;2022-11-03T15:17:35;16;11;
62591;PMS5003;48659;41.622;2.276;2022-11-03T15:20:02;13;11;
62591;PMS5003;48659;41.622;2.276;2022-11-03T15:22:30;15;13;
62591;PMS5003;48659;41.622;2.276;2022-11-03T15:24:58;15;13;
62591;PMS5003;48659;41.622;2.276;2022-11-03T15:27:25;12;12;
62591;PMS5003;48659;41.622;2.276;2022-11-03T15:29:53;12;9;
62591;PMS5003;48659;41.622;2.276;2022-11-03T15:32:20;11;11;
62591;PMS5003;48659;41.622;2.276;2022-11-03T15:34:47;10;10;
62591;PMS5003;48659;41.622;2.276;2022-11-03T15:37:14;10;10;
62591;PMS5003;48659;41.622;2.276;2022-11-03T15:39:42;11;11;
62591;PMS5003;48659;41.622;2.276;2022-11-03T15:42:09;13;13;
62591;PMS5003;48659;41.622;2.276;2022-11-03T15:44:36;10;10;
62591;PMS5003;48659;41.622;2.276;2022-11-03T15:47:04;11;10;
62591;PMS5003;48659;41.622;2.276;2022-11-03T15:49:31;12;12;
62591;PMS5003;48659;41.622;2.276;2022-11-03T15:51:59;11;11;
62591;PMS5003;48659;41.622;2.276;2022-11-03T15:54:26;12;12;
62591;PMS5003;48659;41.622;2.276;2022-11-03T15:56:54;15;15;
62591;PMS5003;48659;41.622;2.276;2022-11-03T15:59:21;15;12;
62591;PMS5003;48659;41.622;2.276;2022-11-03T16:01:48;10;9;
62591;PMS5003;48659;41.622;2.276;2022-11-03T16:04:15;9;8;
62591;PMS5003;48659;41.622;2.276;2022-11-03T16:06:42;10;10;
62591;PMS5003;48659;41.622;2.276;2022-11-03T16:09:19;11;8;
62591;PMS5003;48659;41.622;2.276;2022-11-03T16:11:47;10;10;
62591;PMS5003;48659;41.622;2.276;2022-11-03T16:14:14;6;6;
62591;PMS5003;48659;41.622;2.276;2022-11-03T16:16:42;9;9;
62591;PMS5003;48659;41.622;2.276;2022-11-03T16:19:11;9;9;
62591;PMS5003;48659;41.622;2.276;2022-11-03T16:21:38;8;7;
62591;PMS5003;48659;41.622;2.276;2022-11-03T16:24:06;8;8;
62591;PMS5003;48659;41.622;2.276;2022-11-03T16:26:34;6;6;
62591;PMS5003;48659;41.622;2.276;2022-11-03T16:29:02;10;10;
62591;PMS5003;48659;41.622;2.276;2022-11-03T16:31:30;8;8;
62591;PMS5003;48659;41.622;2.276;2022-11-03T16:33:58;9;9;
62591;PMS5003;48659;41.622;2.276;2022-11-03T16:36:25;6;6;
62591;PMS5003;48659;41.622;2.276;2022-11-03T16:38:52;6;6;
62591;PMS5003;48659;41.622;2.276;2022-11-03T16:41:21;9;8;
62591;PMS5003;48659;41.622;2.276;2022-11-03T16:43:48;8;5;